createdAt,value
2019-01-16T00:00:41.248Z,30.53
2019-01-16T00:03:10.512Z,21.10
2019-01-16T00:05:42.472Z,33.17
2019-01-16T00:08:29.404Z,33.07
2019-01-16T00:10:58.889Z,35.73
2019-01-16T00:13:30.035Z,26.60
2019-01-16T00:16:04.118Z,33.50
2019-01-16T00:18:35.254Z,24.80
2019-01-16T00:21:12.238Z,28.70
2019-01-16T00:23:46.376Z,35.87
2019-01-16T00:26:33.578Z,30.33
2019-01-16T00:29:08.295Z,26.67
2019-01-16T00:32:16.889Z,28.63
2019-01-16T00:34:48.005Z,33.33
2019-01-16T00:37:34.970Z,28.97
2019-01-16T00:40:09.334Z,31.73
2019-01-16T00:42:47.109Z,36.77
2019-01-16T00:45:21.710Z,29.70
2019-01-16T00:48:04.936Z,42.03
2019-01-16T00:50:52.160Z,31.00
2019-01-16T00:53:28.932Z,37.33
2019-01-16T00:56:00.586Z,35.63
2019-01-16T00:58:37.534Z,45.23
2019-01-16T01:01:17.827Z,45.63
2019-01-16T01:03:49.184Z,40.33
2019-01-16T01:06:33.456Z,37.10
2019-01-16T01:09:16.333Z,34.10
2019-01-16T01:11:56.159Z,33.80
2019-01-16T01:14:27.692Z,31.70
2019-01-16T01:16:58.815Z,28.87
2019-01-16T01:19:46.721Z,37.97
2019-01-16T01:22:20.566Z,35.63
2019-01-16T01:24:49.862Z,35.20
2019-01-16T01:27:35.995Z,36.40
2019-01-16T01:30:14.547Z,38.50
2019-01-16T01:32:54.566Z,34.10
2019-01-16T01:35:34.206Z,35.67
2019-01-16T01:38:21.172Z,43.73
2019-01-16T01:40:52.326Z,32.23
2019-01-16T01:43:21.591Z,44.13
2019-01-16T01:45:55.417Z,45.37
2019-01-16T01:48:39.971Z,40.53
2019-01-16T01:51:13.931Z,45.00
2019-01-16T01:53:45.042Z,39.23
2019-01-16T01:56:18.885Z,39.03
2019-01-16T01:59:08.172Z,50.43
2019-01-16T02:01:50.955Z,49.67
2019-01-16T02:04:22.139Z,47.40
2019-01-16T02:07:09.365Z,51.87
2019-01-16T02:09:40.830Z,38.13
2019-01-16T02:12:11.985Z,45.73
2019-01-16T02:14:52.098Z,40.83
2019-01-16T02:17:26.937Z,44.63
2019-01-16T02:20:00.771Z,39.10
2019-01-16T02:22:37.999Z,42.23
2019-01-16T02:25:18.195Z,39.93
2019-01-16T02:28:04.373Z,45.13
2019-01-16T02:30:35.681Z,44.33
2019-01-16T02:33:15.682Z,43.93
2019-01-16T02:36:05.349Z,35.10
2019-01-16T02:38:39.166Z,48.60
2019-01-16T02:41:25.080Z,41.33
2019-01-16T02:44:04.659Z,39.43
2019-01-16T02:46:52.248Z,40.23
2019-01-16T02:49:26.080Z,41.50
2019-01-16T02:52:09.054Z,45.33
2019-01-16T02:54:40.196Z,37.53
2019-01-16T03:00:03.927Z,36.47
2019-01-16T03:02:35.055Z,44.77
2019-01-16T03:05:24.709Z,42.07
2019-01-16T03:07:55.915Z,32.47
2019-01-16T03:10:33.025Z,38.10
2019-01-16T03:13:13.159Z,42.90
2019-01-16T03:15:46.705Z,34.33
2019-01-16T03:18:20.510Z,36.17
2019-01-16T03:21:07.228Z,36.27
2019-01-16T03:23:52.792Z,42.90
2019-01-16T03:26:26.679Z,48.13
2019-01-16T03:29:09.538Z,40.97
2019-01-16T03:31:40.805Z,33.27
2019-01-16T03:34:14.667Z,37.03
2019-01-16T03:37:02.751Z,30.67
2019-01-16T03:42:44.538Z,32.70
2019-01-16T03:45:21.521Z,31.93
2019-01-16T03:47:52.679Z,38.97
2019-01-16T03:50:26.189Z,38.00
2019-01-16T03:53:03.152Z,41.87
2019-01-16T03:55:52.517Z,37.83
2019-01-16T03:58:32.221Z,33.70
2019-01-16T04:01:03.371Z,37.20
2019-01-16T04:03:37.371Z,39.87
2019-01-16T04:06:08.489Z,35.10
2019-01-16T04:08:48.847Z,33.13
2019-01-16T04:11:20.201Z,34.70
2019-01-16T04:13:53.826Z,45.17
2019-01-16T04:16:41.025Z,40.07
2019-01-16T04:19:21.762Z,34.93
2019-01-16T04:21:50.733Z,32.90
2019-01-16T04:24:27.523Z,46.77
2019-01-16T04:27:15.427Z,33.40
2019-01-16T04:30:02.855Z,36.43
2019-01-16T04:32:33.991Z,36.90
2019-01-16T04:35:09.052Z,39.63
2019-01-16T04:40:41.933Z,35.53
2019-01-16T04:43:13.511Z,37.27
2019-01-16T04:45:47.497Z,46.57
2019-01-16T04:48:21.742Z,34.90
2019-01-16T04:51:05.119Z,37.20
2019-01-16T04:53:52.326Z,36.13
2019-01-16T04:56:23.470Z,40.60
2019-01-16T04:58:55.366Z,59.20
2019-01-16T05:01:42.303Z,35.73
2019-01-16T05:04:13.422Z,36.63
2019-01-16T05:06:44.600Z,33.57
2019-01-16T05:09:15.795Z,42.33
2019-01-16T05:11:56.055Z,49.03
2019-01-16T05:14:35.935Z,41.10
2019-01-16T05:17:12.884Z,33.90
2019-01-16T05:19:49.813Z,47.57
2019-01-16T05:22:26.573Z,43.63
2019-01-16T05:25:00.481Z,44.43
2019-01-16T05:27:33.997Z,44.13
2019-01-16T05:30:03.307Z,40.33
2019-01-16T05:32:46.300Z,47.30
2019-01-16T05:35:23.178Z,37.07
2019-01-16T05:38:09.386Z,44.40
2019-01-16T05:40:47.240Z,53.53
2019-01-16T05:43:34.096Z,44.20
2019-01-16T05:46:05.230Z,45.20
2019-01-16T05:48:36.378Z,48.40
2019-01-16T05:51:22.202Z,42.60
2019-01-16T05:53:51.456Z,44.37
2019-01-16T05:56:32.368Z,46.30
2019-01-16T05:59:05.926Z,44.60
2019-01-16T06:01:53.151Z,41.33
2019-01-16T06:04:29.976Z,47.00
2019-01-16T06:07:32.205Z,38.97
2019-01-16T06:10:12.562Z,39.13
2019-01-16T06:12:58.842Z,38.27
2019-01-16T06:15:45.196Z,43.17
2019-01-16T06:18:25.320Z,42.80
2019-01-16T06:21:02.490Z,41.70
2019-01-16T06:23:45.610Z,43.30
2019-01-16T06:26:19.770Z,41.80
2019-01-16T06:29:07.365Z,46.70
2019-01-16T06:31:45.540Z,41.10
2019-01-16T06:34:32.503Z,42.10
2019-01-16T06:37:19.906Z,47.63
2019-01-16T06:39:59.930Z,46.23
2019-01-16T06:42:36.835Z,42.97
2019-01-16T06:45:27.887Z,40.17
2019-01-16T06:48:11.072Z,54.00
2019-01-16T06:50:42.218Z,41.20
2019-01-16T06:53:13.428Z,45.40
2019-01-16T06:55:48.682Z,40.77
2019-01-16T06:58:31.282Z,40.10
2019-01-16T07:01:02.471Z,43.20
2019-01-16T07:03:48.740Z,37.57
2019-01-16T07:06:34.890Z,38.60
2019-01-16T07:09:13.272Z,41.33
2019-01-16T07:11:44.478Z,40.80
2019-01-16T07:14:27.771Z,43.33
2019-01-16T07:17:15.432Z,47.60
2019-01-16T07:19:52.594Z,46.77
2019-01-16T07:22:23.932Z,45.17
2019-01-16T07:25:03.784Z,43.73
2019-01-16T07:27:51.146Z,46.23
2019-01-16T07:30:44.046Z,37.97
2019-01-16T07:33:31.414Z,39.60
2019-01-16T07:36:11.622Z,41.07
2019-01-16T07:38:42.790Z,41.60
2019-01-16T07:41:22.687Z,41.13
2019-01-16T07:43:56.722Z,41.27
2019-01-16T07:46:27.902Z,78.90
2019-01-16T07:49:01.725Z,39.80
2019-01-16T07:51:45.426Z,35.97
2019-01-16T07:54:32.920Z,38.03
2019-01-16T07:57:07.022Z,40.70
2019-01-16T07:59:38.149Z,40.17
2019-01-16T08:02:12.066Z,46.93
2019-01-16T08:04:47.726Z,43.20
2019-01-16T08:07:24.686Z,39.10
2019-01-16T08:10:01.359Z,41.43
2019-01-16T08:12:38.250Z,38.60
2019-01-16T08:15:26.988Z,34.83
2019-01-16T08:18:01.184Z,36.87
2019-01-16T08:20:35.167Z,34.37
2019-01-16T08:23:22.864Z,40.20
2019-01-16T08:25:59.973Z,38.10
2019-01-16T08:28:45.471Z,36.33
2019-01-16T08:31:22.595Z,34.60
2019-01-16T08:34:08.445Z,37.00
2019-01-16T08:36:51.614Z,38.90
2019-01-16T08:39:22.976Z,37.30
2019-01-16T08:42:00.023Z,39.97
2019-01-16T08:44:34.096Z,39.97
2019-01-16T08:47:11.189Z,40.23
2019-01-16T08:49:54.634Z,44.23
2019-01-16T08:52:42.057Z,37.60
2019-01-16T08:55:13.360Z,35.50
2019-01-16T08:57:59.487Z,41.27
2019-01-16T09:00:31.391Z,50.90
2019-01-16T09:03:14.558Z,38.77
2019-01-16T09:05:46.277Z,36.00
2019-01-16T09:08:20.211Z,34.93
2019-01-16T09:11:00.531Z,36.27
2019-01-16T09:13:37.427Z,34.00
2019-01-16T09:16:23.269Z,35.87
2019-01-16T09:18:57.139Z,32.20
2019-01-16T09:21:44.122Z,33.00
2019-01-16T09:24:22.056Z,37.40
2019-01-16T09:26:59.560Z,35.40
2019-01-16T09:29:30.713Z,31.27
2019-01-16T09:32:04.264Z,32.70
2019-01-16T09:34:35.438Z,34.57
2019-01-16T09:37:07.511Z,33.77
2019-01-16T09:39:41.383Z,29.83
2019-01-16T09:42:21.395Z,26.43
2019-01-16T09:44:55.662Z,23.90
2019-01-16T09:47:28.742Z,25.77
2019-01-16T09:49:59.841Z,27.60
2019-01-16T09:52:43.154Z,30.60
2019-01-16T09:55:18.139Z,24.83
2019-01-16T09:57:49.309Z,29.23
2019-01-16T10:00:36.637Z,28.03
2019-01-16T10:03:19.759Z,26.80
2019-01-16T10:06:06.911Z,28.50
2019-01-16T10:08:55.017Z,22.33
2019-01-16T10:11:32.193Z,34.83
2019-01-16T10:14:03.365Z,22.33
2019-01-16T10:16:51.916Z,22.00
2019-01-16T10:19:32.164Z,49.63
2019-01-16T10:22:21.291Z,23.23
2019-01-16T10:24:55.218Z,19.57
2019-01-16T10:27:35.076Z,21.43
2019-01-16T10:30:28.671Z,18.93
2019-01-16T10:32:59.825Z,19.33
2019-01-16T10:35:34.676Z,21.97
2019-01-16T10:38:16.104Z,23.27
2019-01-16T10:41:03.251Z,18.83
2019-01-16T10:43:34.380Z,25.67
2019-01-16T10:46:08.358Z,21.30
2019-01-16T10:48:39.509Z,22.30
2019-01-16T10:51:10.653Z,19.10
2019-01-16T10:53:41.940Z,24.10
2019-01-16T10:56:31.362Z,22.47
2019-01-16T10:59:11.153Z,19.70
2019-01-16T11:01:42.336Z,18.20
2019-01-16T11:04:13.546Z,18.47
2019-01-16T11:09:32.561Z,16.70
2019-01-16T11:12:04.125Z,20.43
2019-01-16T11:14:43.989Z,30.77
2019-01-16T11:17:15.234Z,17.50
2019-01-16T11:19:49.259Z,21.70
2019-01-16T11:22:23.241Z,16.73
2019-01-16T11:24:57.005Z,22.13
2019-01-16T11:27:31.185Z,18.83
2019-01-16T11:30:08.417Z,18.70
2019-01-16T11:32:45.374Z,19.20
2019-01-16T11:35:32.577Z,15.87
2019-01-16T11:38:19.749Z,22.57
2019-01-16T11:40:53.556Z,17.33
2019-01-16T11:43:26.062Z,18.40
2019-01-16T11:46:00.131Z,18.77
2019-01-16T11:48:37.026Z,16.20
2019-01-16T11:51:08.232Z,14.67
2019-01-16T11:53:42.363Z,21.63
2019-01-16T11:56:13.505Z,17.57
2019-01-16T11:59:01.009Z,19.53
2019-01-16T12:01:48.080Z,19.70
2019-01-16T12:04:19.284Z,16.50
2019-01-16T12:06:50.424Z,19.50
2019-01-16T12:09:21.633Z,22.97
2019-01-16T12:12:08.646Z,19.20
2019-01-16T12:14:55.152Z,22.57
2019-01-16T12:20:09.429Z,24.43
2019-01-16T12:22:40.827Z,24.20
2019-01-16T12:25:17.852Z,24.17
2019-01-16T12:27:48.999Z,20.10
2019-01-16T12:30:22.955Z,23.00
2019-01-16T12:32:54.138Z,19.03
2019-01-16T12:35:31.256Z,21.37
2019-01-16T12:38:02.403Z,25.87
2019-01-16T12:40:31.652Z,20.90
2019-01-16T12:43:14.819Z,19.13
2019-01-16T12:45:48.346Z,21.50
2019-01-16T12:48:29.558Z,21.93
2019-01-16T12:51:00.726Z,21.23
2019-01-16T12:53:34.548Z,22.30
2019-01-16T12:56:06.793Z,34.63
2019-01-16T12:58:43.906Z,15.53
2019-01-16T13:01:20.936Z,17.60
2019-01-16T13:03:54.998Z,14.23
2019-01-16T13:06:33.209Z,18.53
2019-01-16T13:09:14.201Z,14.33
2019-01-16T13:11:48.912Z,14.97
2019-01-16T13:14:20.030Z,13.50
2019-01-16T13:16:51.142Z,10.83
2019-01-16T13:19:34.243Z,11.70
2019-01-16T13:22:11.405Z,10.97
2019-01-16T13:24:45.588Z,16.10
2019-01-16T13:27:23.000Z,9.77
2019-01-16T13:30:06.270Z,9.40
2019-01-16T13:32:39.854Z,11.77
2019-01-16T13:35:14.127Z,9.70
2019-01-16T13:37:53.818Z,9.43
2019-01-16T13:40:27.387Z,13.00
2019-01-16T13:43:02.124Z,8.53
2019-01-16T13:45:50.076Z,9.63
2019-01-16T13:48:37.377Z,8.70
2019-01-16T13:51:24.286Z,9.83
2019-01-16T13:54:11.408Z,8.07
2019-01-16T13:56:54.582Z,7.53
2019-01-16T13:59:37.966Z,6.37
2019-01-16T14:02:16.526Z,10.93
2019-01-16T14:05:05.721Z,13.73
2019-01-16T14:07:54.787Z,12.10
2019-01-16T14:10:27.733Z,15.97
2019-01-16T14:13:04.857Z,27.63
2019-01-16T14:15:37.000Z,19.57
2019-01-16T14:18:11.096Z,18.30
2019-01-16T14:20:42.267Z,20.53
2019-01-16T14:23:29.459Z,17.37
2019-01-16T14:26:16.352Z,20.73
2019-01-16T14:29:03.674Z,17.73
2019-01-16T14:31:34.794Z,14.60
2019-01-16T14:34:04.735Z,19.57
2019-01-16T14:36:45.710Z,14.63
2019-01-16T14:39:35.169Z,19.27
2019-01-16T14:42:22.386Z,16.63
2019-01-16T14:44:56.348Z,16.97
2019-01-16T14:47:27.591Z,19.10
2019-01-16T14:50:01.116Z,17.17
2019-01-16T14:52:32.260Z,17.77
2019-01-16T14:55:06.025Z,22.60
2019-01-16T14:57:34.544Z,18.13
2019-01-16T15:00:24.911Z,23.07
2019-01-16T15:03:12.039Z,20.20
2019-01-16T15:05:46.082Z,22.87
2019-01-16T15:08:29.033Z,23.00
2019-01-16T15:11:12.195Z,21.40
2019-01-16T15:13:53.038Z,21.13
2019-01-16T15:16:24.209Z,20.87
2019-01-16T15:18:57.795Z,22.47
2019-01-16T15:21:28.948Z,21.30
2019-01-16T15:24:16.318Z,21.60
2019-01-16T15:26:49.842Z,19.33
2019-01-16T15:29:36.886Z,17.83
2019-01-16T15:32:24.146Z,21.13
2019-01-16T15:35:04.912Z,19.63
2019-01-16T15:37:36.046Z,18.83
2019-01-16T15:40:28.405Z,17.47
2019-01-16T15:42:59.527Z,16.37
2019-01-16T15:45:37.187Z,15.90
2019-01-16T15:48:26.496Z,17.60
2019-01-16T15:51:06.259Z,24.00
2019-01-16T15:53:52.413Z,16.83
2019-01-16T15:56:23.915Z,18.00
2019-01-16T15:58:58.391Z,17.90
2019-01-16T16:01:38.343Z,23.60
2019-01-16T16:04:15.205Z,16.90
2019-01-16T16:06:58.309Z,18.00
2019-01-16T16:09:35.046Z,17.90
2019-01-16T16:12:21.998Z,19.03
2019-01-16T16:15:11.283Z,22.87
2019-01-16T16:17:46.006Z,20.73
2019-01-16T16:20:23.031Z,23.57
2019-01-16T16:22:54.231Z,20.83
2019-01-16T16:25:28.022Z,26.50
2019-01-16T16:27:59.967Z,20.63
2019-01-16T16:30:46.307Z,21.43
2019-01-16T16:33:23.757Z,27.80
2019-01-16T16:35:55.970Z,28.60
2019-01-16T16:38:29.887Z,30.93
2019-01-16T16:41:09.963Z,28.03
2019-01-16T16:43:41.279Z,21.60
2019-01-16T16:46:13.487Z,20.43
2019-01-16T16:48:56.970Z,23.20
2019-01-16T16:51:30.588Z,26.40
2019-01-16T16:54:01.700Z,23.60
2019-01-16T16:56:45.392Z,25.90
2019-01-16T16:59:22.432Z,26.00
2019-01-16T17:01:59.171Z,28.67
2019-01-16T17:04:48.139Z,26.80
2019-01-16T17:07:18.186Z,22.73
2019-01-16T17:09:55.034Z,25.67
2019-01-16T17:12:26.174Z,29.13
2019-01-16T17:15:12.555Z,21.20
2019-01-16T17:17:43.714Z,27.23
2019-01-16T17:20:18.287Z,22.63
2019-01-16T17:22:52.363Z,19.80
2019-01-16T17:25:39.234Z,23.63
2019-01-16T17:28:10.418Z,22.37
2019-01-16T17:30:44.360Z,18.23
2019-01-16T17:33:18.167Z,19.87
2019-01-16T17:35:49.338Z,18.40
2019-01-16T17:38:20.485Z,27.33
2019-01-16T17:43:43.215Z,17.37
2019-01-16T17:46:14.470Z,19.37
2019-01-16T17:49:03.537Z,15.20
2019-01-16T17:51:47.970Z,16.30
2019-01-16T17:54:11.816Z,25.37
2019-01-16T17:56:49.380Z,22.63
2019-01-16T17:59:24.065Z,33.13
2019-01-16T18:02:03.052Z,21.03
2019-01-16T18:04:34.199Z,25.33
2019-01-16T18:07:08.330Z,20.83
2019-01-16T18:09:39.441Z,19.70
2019-01-16T18:12:16.895Z,29.77
2019-01-16T18:15:04.497Z,21.07
2019-01-16T18:17:35.752Z,22.25
2019-01-16T18:20:17.535Z,20.02
2019-01-16T18:22:51.714Z,25.43
2019-01-16T18:25:38.625Z,23.10
2019-01-16T18:28:15.808Z,20.20
2019-01-16T18:30:55.428Z,33.80
2019-01-16T18:33:29.638Z,23.90
2019-01-16T18:36:07.770Z,22.50
2019-01-16T18:38:39.081Z,26.20
2019-01-16T18:41:10.221Z,25.13
2019-01-16T18:43:50.829Z,30.00
2019-01-16T18:46:40.301Z,27.45
2019-01-16T18:49:11.520Z,16.40
2019-01-16T18:52:00.860Z,23.20
2019-01-16T18:54:32.036Z,24.45
2019-01-16T18:57:21.183Z,24.23
2019-01-16T18:59:52.666Z,27.97
2019-01-16T19:02:28.142Z,22.27
2019-01-16T19:05:14.892Z,24.92
2019-01-16T19:08:01.118Z,21.45
2019-01-16T19:10:32.416Z,32.60
2019-01-16T19:13:15.510Z,26.15
2019-01-16T19:15:47.350Z,24.45
2019-01-16T19:18:24.338Z,28.45
2019-01-16T19:20:55.489Z,38.65
2019-01-16T19:23:29.277Z,31.73
2019-01-16T19:26:00.952Z,35.50
2019-01-16T19:28:47.304Z,30.62
2019-01-16T19:31:21.317Z,43.05
2019-01-16T19:34:07.640Z,32.93
2019-01-16T19:36:55.010Z,45.55
2019-01-16T19:39:42.211Z,38.15
2019-01-16T19:42:26.410Z,37.80
2019-01-16T19:44:55.702Z,35.83
2019-01-16T19:47:27.334Z,34.35
2019-01-16T19:49:56.691Z,35.33
2019-01-16T19:52:31.438Z,30.52
2019-01-16T19:55:14.515Z,35.00
2019-01-16T19:57:48.521Z,41.95
2019-01-16T20:00:30.614Z,33.42
2019-01-16T20:03:11.014Z,34.13
2019-01-16T20:05:45.148Z,29.70
2019-01-16T20:08:23.387Z,37.50
2019-01-16T20:10:52.869Z,29.52
2019-01-16T20:13:39.864Z,41.75
2019-01-16T20:16:22.807Z,30.45
2019-01-16T20:18:53.981Z,28.67
2019-01-16T20:21:27.692Z,35.78
2019-01-16T20:24:07.817Z,34.33
2019-01-16T20:26:42.129Z,38.05
2019-01-16T20:29:22.110Z,40.15
2019-01-16T20:31:53.254Z,41.20
2019-01-16T20:34:36.131Z,40.10
2019-01-16T20:37:22.891Z,37.13
2019-01-16T20:40:06.070Z,36.73
2019-01-16T20:42:51.853Z,31.68
2019-01-16T20:45:32.033Z,36.03
2019-01-16T20:48:03.160Z,34.63
2019-01-16T20:50:36.730Z,35.35
2019-01-16T20:53:07.886Z,34.70
2019-01-16T20:55:45.818Z,36.23
2019-01-16T20:58:17.612Z,39.55
2019-01-16T21:00:46.893Z,33.75
2019-01-16T21:03:18.053Z,28.07
2019-01-16T21:05:54.824Z,33.15
2019-01-16T21:08:34.819Z,27.70
2019-01-16T21:11:18.368Z,34.92
2019-01-16T21:13:52.177Z,31.45
2019-01-16T21:16:29.496Z,34.88
2019-01-16T21:19:03.025Z,29.05
2019-01-16T21:21:36.937Z,37.03
2019-01-16T21:24:16.677Z,27.37
2019-01-16T21:26:59.497Z,28.25
2019-01-16T21:29:30.632Z,33.28
2019-01-16T21:31:59.906Z,25.10
2019-01-16T21:34:37.300Z,28.55
2019-01-16T21:37:11.435Z,26.40
2019-01-16T21:39:42.624Z,28.90
2019-01-16T21:42:28.832Z,28.52
2019-01-16T21:45:00.173Z,26.97
2019-01-16T21:47:37.310Z,22.73
2019-01-16T21:50:26.822Z,26.82
2019-01-16T21:52:57.988Z,29.35
2019-01-16T21:55:31.542Z,23.25
2019-01-16T21:58:03.218Z,29.33
2019-01-16T22:00:34.364Z,24.05
2019-01-16T22:03:08.012Z,24.63
2019-01-16T22:05:47.708Z,25.60
2019-01-16T22:08:34.380Z,26.07
2019-01-16T22:11:14.123Z,23.75
2019-01-16T22:13:45.310Z,26.30
2019-01-16T22:16:17.775Z,23.87
2019-01-16T22:18:51.617Z,28.92
2019-01-16T22:21:28.866Z,26.60
2019-01-16T22:24:03.356Z,28.02
2019-01-16T22:26:49.551Z,20.25
2019-01-16T22:29:26.473Z,21.27
2019-01-16T22:32:06.814Z,26.05
2019-01-16T22:34:46.669Z,18.73
2019-01-16T22:37:17.786Z,26.17
2019-01-16T22:39:48.921Z,25.80
2019-01-16T22:42:21.151Z,29.27
2019-01-16T22:44:52.270Z,24.25
2019-01-16T22:47:23.413Z,25.37
2019-01-16T22:50:11.282Z,21.97
2019-01-16T22:52:49.271Z,28.17
2019-01-16T22:55:29.464Z,15.83
2019-01-16T22:58:15.909Z,23.05
2019-01-16T23:00:55.556Z,21.77
2019-01-16T23:03:35.381Z,22.82
2019-01-16T23:06:07.615Z,25.60
2019-01-16T23:08:38.829Z,25.30
2019-01-16T23:11:10.089Z,20.17
2019-01-16T23:13:43.681Z,19.50
2019-01-16T23:16:17.193Z,23.50
2019-01-16T23:18:51.441Z,20.40
2019-01-16T23:21:31.287Z,21.20
2019-01-16T23:24:03.243Z,29.25
2019-01-16T23:26:50.137Z,27.32
2019-01-16T23:29:24.464Z,22.35
2019-01-16T23:32:01.534Z,27.85
2019-01-16T23:34:35.613Z,24.95
2019-01-16T23:37:07.849Z,23.40
2019-01-16T23:39:37.571Z,30.75
2019-01-16T23:42:11.591Z,26.62
2019-01-16T23:44:54.660Z,30.37
2019-01-16T23:47:25.892Z,26.12
2019-01-16T23:50:05.736Z,27.85
2019-01-16T23:52:39.917Z,32.78
2019-01-16T23:55:14.155Z,22.32
2019-01-16T23:57:50.981Z,31.37
